Time;durP1;ratioP1;P1;durP2;ratioP2;P2;SDS_P1;SDS_P2;PMS_P1;PMS_P2;Temp;Humidity;BMP_temperature;BMP_pressure;BME280_temperature;BME280_humidity;BME280_pressure;Samples;Min_cycle;Max_cycle;Signal;HPM_P1;HPM_P2
2022/05/27 00:01:06;;;;;;;2.35;0.70;;;;;;;15.39;57.57;96791.02;1743988;81;20927;-86
2022/05/27 00:03:32;;;;;;;1.37;0.60;;;;;;;15.40;57.53;96793.94;1778210;80;21421;-87
2022/05/27 00:05:58;;;;;;;0.93;0.40;;;;;;;15.43;57.59;96786.17;1767511;80;20955;-87
2022/05/27 00:08:25;;;;;;;1.60;0.50;;;;;;;15.44;57.26;96793.02;1764411;80;20979;-86
2022/05/27 00:10:51;;;;;;;2.60;0.55;;;;;;;15.45;57.56;96786.27;1764917;81;21391;-86
2022/05/27 00:13:17;;;;;;;1.67;0.40;;;;;;;15.48;57.50;96786.40;1772876;80;20981;-86
2022/05/27 00:15:42;;;;;;;1.42;0.55;;;;;;;15.48;57.39;96783.27;1742451;80;20984;-87
2022/05/27 00:18:08;;;;;;;1.50;0.50;;;;;;;15.49;57.56;96785.39;1766446;81;21030;-87
2022/05/27 00:20:35;;;;;;;1.60;0.60;;;;;;;15.50;57.43;96783.87;1767745;81;20971;-86
2022/05/27 00:23:01;;;;;;;0.98;0.50;;;;;;;15.52;57.51;96778.43;1756310;81;20968;-86
2022/05/27 00:25:27;;;;;;;1.05;0.40;;;;;;;15.52;57.48;96771.88;1766584;80;21362;-87
2022/05/27 00:27:54;;;;;;;1.25;0.47;;;;;;;15.52;57.70;96774.00;1778434;80;20978;-87
2022/05/27 00:30:20;;;;;;;0.68;0.35;;;;;;;15.50;57.62;96772.59;1771902;80;20964;-86
2022/05/27 00:32:45;;;;;;;1.50;0.50;;;;;;;15.51;57.64;96766.34;1778677;80;20995;-86
2022/05/27 00:35:11;;;;;;;3.00;0.75;;;;;;;15.50;57.75;96767.36;1778201;80;20994;-85
2022/05/27 00:37:37;;;;;;;1.42;0.37;;;;;;;15.52;57.52;96767.95;1778622;80;20946;-85
2022/05/27 00:40:04;;;;;;;1.87;0.55;;;;;;;15.52;57.69;96764.83;1763756;80;21073;-82
2022/05/27 00:42:30;;;;;;;1.40;0.65;;;;;;;15.52;57.65;96760.91;1781785;80;21043;-83
2022/05/27 00:44:55;;;;;;;1.80;0.53;;;;;;;15.53;57.73;96762.52;1789951;80;20932;-83
2022/05/27 00:47:22;;;;;;;1.30;0.70;;;;;;;15.53;57.70;96761.70;1789298;80;20973;-83
2022/05/27 00:49:53;;;;;;;2.12;0.80;;;;;;;15.53;57.74;96758.58;1784759;80;21437;-83
2022/05/27 00:52:20;;;;;;;2.47;0.80;;;;;;;15.53;57.85;96753.34;1784652;80;20989;-83
2022/05/27 00:54:46;;;;;;;1.22;0.42;;;;;;;15.52;57.77;96758.28;1775041;80;21350;-83
2022/05/27 00:57:23;;;;;;;1.05;0.60;;;;;;;15.51;57.78;96751.44;1764212;80;20911;-83
2022/05/27 00:59:55;;;;;;;1.20;0.50;;;;;;;15.51;57.71;96746.20;1792419;79;20998;-86
2022/05/27 01:02:21;;;;;;;1.50;0.60;;;;;;;15.50;57.78;96756.88;1797707;80;21316;-85
2022/05/27 01:04:47;;;;;;;0.85;0.50;;;;;;;15.49;57.86;96756.08;1785299;80;20932;-86
2022/05/27 01:07:13;;;;;;;2.72;0.70;;;;;;;15.47;57.78;96747.63;1787079;80;21073;-86
2022/05/27 01:09:40;;;;;;;1.25;0.70;;;;;;;15.47;57.64;96757.29;1789112;80;21013;-85
2022/05/27 01:12:30;;;;;;;1.92;0.70;;;;;;;15.48;57.82;96745.81;1786734;80;21011;-86
2022/05/27 01:15:34;;;;;;;2.58;0.72;;;;;;;15.47;57.65;96746.81;1775880;80;21004;-85
2022/05/27 01:21:42;;;;;;;2.15;0.78;;;;;;;15.46;57.84;96746.02;1780981;80;21090;-85
2022/05/27 01:24:17;;;;;;;1.50;0.53;;;;;;;15.44;57.99;96742.77;1784081;80;20968;-84
2022/05/27 01:27:22;;;;;;;1.37;0.55;;;;;;;15.42;58.02;96746.09;1783822;80;20982;-85
2022/05/27 01:30:15;;;;;;;1.27;0.50;;;;;;;15.41;58.05;96733.21;1765204;80;21023;-85
2022/05/27 01:33:07;;;;;;;1.07;0.50;;;;;;;15.37;58.20;96731.51;1752280;80;21026;-84
2022/05/27 01:35:41;;;;;;;1.20;0.50;;;;;;;15.35;58.15;96728.80;1756721;80;21358;-85
2022/05/27 01:38:22;;;;;;;1.25;0.40;;;;;;;15.31;58.26;96720.55;1788940;80;20974;-85
2022/05/27 01:40:56;;;;;;;0.85;0.50;;;;;;;15.30;58.25;96718.44;1735766;80;21071;-85
2022/05/27 01:43:48;;;;;;;1.45;0.50;;;;;;;15.28;58.28;96717.00;1773628;80;20948;-86
2022/05/27 01:46:18;;;;;;;1.47;0.40;;;;;;;15.25;58.22;96714.80;1766204;80;21040;-85
2022/05/27 01:49:06;;;;;;;1.05;0.82;;;;;;;15.22;58.46;96709.97;1788592;80;21029;-85
2022/05/27 01:51:43;;;;;;;1.05;0.50;;;;;;;15.17;58.51;96712.40;1789935;80;21041;-85
2022/05/27 01:54:18;;;;;;;0.68;0.45;;;;;;;15.12;58.98;96708.25;1789640;80;21081;-86
2022/05/27 01:56:55;;;;;;;1.17;0.60;;;;;;;15.06;59.37;96705.95;1774240;80;20946;-85
2022/05/27 01:59:32;;;;;;;2.42;0.55;;;;;;;15.00;59.62;96710.19;1768649;80;20971;-85
2022/05/27 02:02:12;;;;;;;0.85;0.50;;;;;;;14.94;59.46;96708.36;1790316;80;20974;-85
2022/05/27 02:04:43;;;;;;;1.70;0.57;;;;;;;14.92;59.43;96705.14;1784922;79;21234;-85
2022/05/27 02:07:15;;;;;;;2.62;0.60;;;;;;;14.88;59.98;96696.59;1780892;80;20997;-85
2022/05/27 02:09:47;;;;;;;2.20;0.47;;;;;;;14.85;59.51;96707.46;1781187;80;21009;-85
2022/05/27 02:12:38;;;;;;;2.02;0.50;;;;;;;14.84;59.79;96706.66;1775003;80;20972;-85
2022/05/27 02:15:10;;;;;;;2.42;0.45;;;;;;;14.84;60.17;96697.50;1780998;80;21148;-85
2022/05/27 02:18:01;;;;;;;0.70;0.42;;;;;;;14.83;59.89;96697.20;1781078;80;20970;-84
2022/05/27 02:20:32;;;;;;;2.58;0.62;;;;;;;14.85;59.89;96698.30;1775681;80;21437;-85
2022/05/27 02:23:02;;;;;;;2.00;0.50;;;;;;;14.85;59.78;96693.07;1780727;80;20952;-84
2022/05/27 02:25:38;;;;;;;2.45;0.57;;;;;;;14.87;59.58;96698.40;1784123;80;21025;-84
2022/05/27 02:28:24;;;;;;;0.68;0.40;;;;;;;14.88;59.63;96691.36;1788113;80;21407;-85
2022/05/27 02:30:56;;;;;;;0.90;0.47;;;;;;;14.89;59.72;96683.30;1790923;80;21013;-85
2022/05/27 02:36:22;;;;;;;1.10;0.50;;;;;;;14.93;59.35;96688.43;1790088;80;21049;-85
2022/05/27 02:38:48;;;;;;;0.80;0.50;;;;;;;14.95;59.59;96680.38;1789929;80;21351;-85
2022/05/27 02:41:33;;;;;;;1.22;0.45;;;;;;;14.95;59.48;96683.80;1788101;80;21036;-85
2022/05/27 02:44:24;;;;;;;2.37;0.50;;;;;;;14.96;59.41;96686.71;1752417;80;21043;-85
2022/05/27 02:46:58;;;;;;;0.90;0.62;;;;;;;14.97;59.55;96673.96;1783531;80;21115;-84
2022/05/27 02:49:51;;;;;;;2.05;0.40;;;;;;;14.98;59.61;96679.49;1753070;80;20976;-85
2022/05/27 02:52:43;;;;;;;1.32;0.60;;;;;;;14.98;59.50;96676.08;1778607;79;21028;-85
2022/05/27 02:55:20;;;;;;;1.35;0.57;;;;;;;14.98;59.43;96659.88;1778561;80;20997;-85
2022/05/27 02:57:51;;;;;;;0.57;0.30;;;;;;;14.99;59.48;96665.41;1778517;81;20998;-85
2022/05/27 03:00:24;;;;;;;2.40;0.70;;;;;;;14.99;59.43;96667.22;1754565;80;20999;-85
2022/05/27 03:02:50;;;;;;;0.90;0.40;;;;;;;14.99;59.71;96662.78;1764007;80;20955;-85
2022/05/27 03:05:19;;;;;;;1.00;0.53;;;;;;;15.00;59.45;96660.47;1795267;79;21294;-86
2022/05/27 03:07:53;;;;;;;0.93;0.47;;;;;;;15.01;59.60;96663.38;1769827;80;20933;-85
2022/05/27 03:10:44;;;;;;;5.08;1.05;;;;;;;15.00;59.45;96657.85;1802837;78;20951;-85
2022/05/27 03:13:42;;;;;;;1.67;0.60;;;;;;;15.01;59.54;96662.08;1798048;79;20976;-84
2022/05/27 03:16:40;;;;;;;0.88;0.50;;;;;;;15.00;59.53;96661.78;1798833;79;21317;-85
2022/05/27 03:19:24;;;;;;;3.37;0.40;;;;;;;15.00;59.64;96664.39;1799466;79;20963;-85
2022/05/27 03:22:13;;;;;;;2.47;0.50;;;;;;;15.00;59.75;96655.73;1780043;79;21046;-85
2022/05/27 03:24:54;;;;;;;2.65;0.60;;;;;;;14.99;59.54;96660.17;1795419;79;21049;-85
2022/05/27 03:27:55;;;;;;;2.17;0.65;;;;;;;14.99;59.71;96656.24;1794158;79;21345;-86
2022/05/27 03:30:32;;;;;;;0.90;0.50;;;;;;;14.99;59.74;96661.48;1794683;79;20979;-86
2022/05/27 03:33:09;;;;;;;0.88;0.57;;;;;;;15.00;59.71;96658.36;1795954;79;21314;-86
2022/05/27 03:36:07;;;;;;;1.92;0.60;;;;;;;14.99;59.59;96652.32;1793110;79;20987;-86
2022/05/27 03:38:41;;;;;;;0.80;0.40;;;;;;;14.99;59.59;96661.48;1798095;80;20970;-87
2022/05/27 03:41:26;;;;;;;1.47;0.40;;;;;;;15.00;59.35;96655.73;1796187;79;20982;-86
2022/05/27 03:43:51;;;;;;;1.35;0.62;;;;;;;15.03;59.40;96652.71;1796034;79;21062;-86
2022/05/27 03:46:37;;;;;;;1.57;0.70;;;;;;;15.05;59.38;96656.43;1776585;80;21023;-86
2022/05/27 03:49:06;;;;;;;0.78;0.60;;;;;;;15.06;59.34;96647.57;1780586;80;21345;-86
2022/05/27 03:51:40;;;;;;;1.77;0.62;;;;;;;15.07;59.41;96649.18;1783780;80;21337;-86
2022/05/27 03:54:07;;;;;;;1.67;0.50;;;;;;;15.08;59.40;96643.73;1762385;79;21350;-86
2022/05/27 03:56:39;;;;;;;1.67;0.55;;;;;;;15.09;59.40;96648.47;1788286;79;21025;-86
2022/05/27 03:59:07;;;;;;;0.80;0.50;;;;;;;15.10;59.29;96648.27;1787697;79;20955;-86
2022/05/27 04:01:33;;;;;;;1.00;0.57;;;;;;;15.10;59.41;96643.03;1789012;79;20997;-86
2022/05/27 04:04:02;;;;;;;0.70;0.40;;;;;;;15.11;59.30;96653.80;1788222;79;21012;-86
2022/05/27 04:06:28;;;;;;;0.88;0.53;;;;;;;15.12;59.10;96644.94;1759967;79;21374;-86
2022/05/27 04:08:55;;;;;;;0.72;0.40;;;;;;;15.12;59.22;96641.52;1759946;79;20995;-86
2022/05/27 04:11:23;;;;;;;2.52;0.55;;;;;;;15.11;59.19;96637.29;1788954;80;20961;-86
2022/05/27 04:13:49;;;;;;;1.90;0.50;;;;;;;15.09;59.25;96646.66;1778035;79;20982;-86
2022/05/27 04:16:15;;;;;;;1.20;0.45;;;;;;;15.07;59.29;96638.20;1791285;79;21435;-87
2022/05/27 04:18:41;;;;;;;1.10;0.60;;;;;;;15.06;59.26;96644.95;1794089;79;20950;-87
2022/05/27 04:21:07;;;;;;;1.10;0.60;;;;;;;15.04;59.47;96634.69;1795889;79;20938;-86
2022/05/27 04:23:32;;;;;;;2.45;0.50;;;;;;;15.01;59.66;96632.48;1793601;79;21022;-87
2022/05/27 04:25:58;;;;;;;2.25;0.47;;;;;;;14.98;59.75;96638.94;1786335;79;20953;-87
2022/05/27 04:28:24;;;;;;;1.40;0.45;;;;;;;14.96;59.88;96634.38;1789436;79;20930;-86
2022/05/27 04:30:49;;;;;;;1.67;0.57;;;;;;;14.95;59.92;96635.39;1788759;79;20966;-86
2022/05/27 04:33:18;;;;;;;1.10;0.53;;;;;;;14.96;60.39;96633.58;1801367;79;21274;-85
2022/05/27 04:35:46;;;;;;;0.82;0.40;;;;;;;14.96;60.34;96624.42;1789460;79;21475;-86
2022/05/27 04:38:12;;;;;;;1.37;0.65;;;;;;;14.96;60.24;96619.19;1789806;79;20944;-85
2022/05/27 04:40:38;;;;;;;2.25;0.78;;;;;;;14.98;60.08;96619.31;1787843;79;21022;-86
2022/05/27 04:43:05;;;;;;;0.82;0.50;;;;;;;15.00;60.03;96609.95;1789912;79;20995;-86
2022/05/27 04:45:31;;;;;;;1.00;0.60;;;;;;;15.04;60.03;96614.27;1792549;79;20963;-87
2022/05/27 04:47:56;;;;;;;1.42;0.40;;;;;;;15.06;60.03;96607.01;1797595;79;21240;-86
2022/05/27 04:50:22;;;;;;;1.25;0.70;;;;;;;15.09;59.77;96622.30;1772642;80;21336;-86
2022/05/27 04:52:48;;;;;;;1.05;0.57;;;;;;;15.12;60.22;96611.41;1791891;79;20983;-86
2022/05/27 04:55:15;;;;;;;1.30;0.88;;;;;;;15.15;60.15;96613.65;1790156;79;20967;-86
2022/05/27 04:57:46;;;;;;;1.25;0.50;;;;;;;15.15;60.10;96609.72;1772304;79;20942;-87
2022/05/27 05:00:21;;;;;;;1.85;0.70;;;;;;;15.17;59.54;96603.78;1791337;79;20975;-86
2022/05/27 05:02:46;;;;;;;2.17;0.40;;;;;;;15.21;59.27;96599.23;1795251;79;20991;-85
2022/05/27 05:05:14;;;;;;;1.70;0.53;;;;;;;15.26;59.50;96598.09;1782685;79;21378;-86
2022/05/27 05:07:40;;;;;;;2.00;0.90;;;;;;;15.29;59.26;96604.73;1769074;80;20980;-86
2022/05/27 05:10:09;;;;;;;1.65;0.65;;;;;;;15.32;59.29;96604.34;1746947;81;20951;-86
2022/05/27 05:12:35;;;;;;;1.60;0.60;;;;;;;15.34;59.32;96598.39;1796020;79;21018;-87
2022/05/27 05:15:01;;;;;;;2.52;0.60;;;;;;;15.37;59.19;96597.17;1777428;80;20945;-86
2022/05/27 05:17:27;;;;;;;1.80;0.60;;;;;;;15.37;59.28;96593.25;1777881;80;22037;-86
2022/05/27 05:19:55;;;;;;;1.02;0.65;;;;;;;15.40;59.11;96596.75;1775952;80;21382;-87
2022/05/27 05:22:22;;;;;;;1.52;0.70;;;;;;;15.42;59.28;96602.08;1781209;80;21015;-86
2022/05/27 05:24:49;;;;;;;3.52;0.60;;;;;;;15.45;59.24;96600.86;1778805;80;21006;-86
2022/05/27 05:27:15;;;;;;;1.10;0.50;;;;;;;15.47;59.22;96597.05;1765106;80;20932;-86
2022/05/27 05:29:41;;;;;;;1.02;0.60;;;;;;;15.49;59.36;96591.09;1781513;80;20952;-86
2022/05/27 05:32:07;;;;;;;1.95;0.70;;;;;;;15.53;59.16;96588.35;1780472;80;20946;-86
2022/05/27 05:34:33;;;;;;;1.98;0.42;;;;;;;15.57;59.60;96578.26;1778052;80;20957;-86
2022/05/27 05:36:59;;;;;;;1.27;0.50;;;;;;;15.65;59.67;96590.36;1779725;80;21057;-87
2022/05/27 05:39:25;;;;;;;1.75;0.70;;;;;;;15.70;59.21;96591.84;1777816;80;20986;-86
2022/05/27 05:42:01;;;;;;;3.40;0.80;;;;;;;15.75;59.86;96595.94;1737041;80;21441;-87
2022/05/27 05:44:27;;;;;;;2.45;1.00;;;;;;;15.80;60.03;96585.16;1755437;80;21465;-85
2022/05/27 05:46:53;;;;;;;2.35;1.00;;;;;;;15.90;59.76;96601.72;1754940;80;21067;-86
2022/05/27 05:49:19;;;;;;;1.87;0.70;;;;;;;16.00;60.01;96590.28;1766069;80;21036;-86
2022/05/27 05:51:45;;;;;;;3.35;0.80;;;;;;;16.07;59.57;96581.86;1756507;80;21075;-86
2022/05/27 05:54:11;;;;;;;1.10;0.72;;;;;;;16.17;59.78;96580.90;1776848;80;21417;-86
2022/05/27 05:56:36;;;;;;;1.45;0.88;;;;;;;16.25;58.89;96588.20;1783600;80;21047;-87
2022/05/27 05:59:02;;;;;;;4.83;1.05;;;;;;;16.35;59.28;96584.61;1781115;80;20948;-86
2022/05/27 06:01:28;;;;;;;1.25;0.57;;;;;;;16.44;59.18;96584.66;1777654;80;20981;-87
2022/05/27 06:03:54;;;;;;;0.93;0.70;;;;;;;16.53;58.94;96580.73;1777416;80;20990;-86
2022/05/27 06:06:20;;;;;;;1.95;0.80;;;;;;;16.62;58.60;96579.97;1777554;80;20917;-86
2022/05/27 06:08:45;;;;;;;2.85;0.60;;;;;;;16.71;58.51;96571.63;1765880;80;21007;-86
2022/05/27 06:11:11;;;;;;;2.83;0.82;;;;;;;16.86;59.14;96571.81;1762531;80;21383;-86
2022/05/27 06:13:39;;;;;;;2.35;0.90;;;;;;;16.95;58.30;96573.15;1762095;79;20975;-86
2022/05/27 06:16:06;;;;;;;1.27;0.85;;;;;;;17.04;58.22;96568.70;1762639;80;20963;-87
2022/05/27 06:18:31;;;;;;;3.25;0.90;;;;;;;17.12;57.89;96567.62;1773938;80;21055;-86
2022/05/27 06:20:58;;;;;;;2.12;0.65;;;;;;;17.24;59.02;96567.67;1766732;80;20986;-87
2022/05/27 06:23:27;;;;;;;1.37;0.75;;;;;;;17.32;57.74;96554.27;1763565;80;21081;-86
2022/05/27 06:26:02;;;;;;;1.72;0.90;;;;;;;17.38;57.90;96558.13;1767717;80;21051;-86
2022/05/27 06:36:43;;;;;;;2.05;0.62;;;;;;;17.78;57.87;96531.91;1770940;80;21038;-84
2022/05/27 06:39:08;;;;;;;4.60;1.27;;;;;;;17.87;56.81;96551.06;1772152;80;21358;-83
2022/05/27 06:41:34;;;;;;;2.80;1.00;;;;;;;17.93;56.44;96537.05;1759077;79;21000;-84
2022/05/27 06:44:01;;;;;;;2.12;0.98;;;;;;;17.97;56.88;96540.02;1765199;79;21000;-84
2022/05/27 06:46:29;;;;;;;2.55;0.85;;;;;;;18.02;56.91;96532.25;1771107;80;20966;-83
2022/05/27 06:48:55;;;;;;;2.08;1.07;;;;;;;18.15;56.66;96533.89;1767113;80;20976;-83
2022/05/27 06:51:20;;;;;;;2.02;1.12;;;;;;;18.21;56.52;96531.16;1772961;80;21015;-84
2022/05/27 06:53:47;;;;;;;4.37;1.00;;;;;;;18.30;56.51;96532.95;1765399;79;21011;-84
2022/05/27 06:56:13;;;;;;;2.55;1.07;;;;;;;18.36;56.31;96524.66;1765079;79;21018;-84
2022/05/27 06:58:40;;;;;;;3.90;0.98;;;;;;;18.43;56.88;96526.17;1783135;79;20994;-85
2022/05/27 07:01:10;;;;;;;2.33;0.93;;;;;;;18.46;55.85;96527.03;1785110;79;21008;-83
2022/05/27 07:03:37;;;;;;;1.90;0.80;;;;;;;18.52;56.00;96522.67;1766329;80;21018;-84
2022/05/27 07:06:08;;;;;;;1.95;0.80;;;;;;;18.61;55.24;96522.63;1785316;79;20950;-84
2022/05/27 07:08:34;;;;;;;2.10;0.80;;;;;;;18.67;55.05;96526.20;1787401;80;20955;-84
2022/05/27 07:11:00;;;;;;;3.22;0.93;;;;;;;18.69;54.48;96519.67;1754912;80;20979;-85
2022/05/27 07:13:26;;;;;;;1.70;0.82;;;;;;;18.69;54.76;96522.30;1776704;79;20998;-84
2022/05/27 07:15:52;;;;;;;2.50;1.12;;;;;;;18.71;54.56;96522.08;1778951;79;20944;-82
2022/05/27 07:18:19;;;;;;;2.00;1.12;;;;;;;18.71;54.14;96515.50;1784435;80;21068;-83
2022/05/27 07:20:45;;;;;;;4.60;1.20;;;;;;;18.70;53.92;96516.02;1786570;79;20993;-82
2022/05/27 07:23:11;;;;;;;3.05;0.90;;;;;;;18.69;54.03;96515.73;1760200;79;21026;-82
2022/05/27 07:25:36;;;;;;;3.00;1.15;;;;;;;18.66;54.21;96504.86;1786650;78;21057;-83
2022/05/27 07:28:08;;;;;;;1.60;1.10;;;;;;;18.64;54.59;96505.09;1779201;78;21366;-83
2022/05/27 07:30:35;;;;;;;1.85;0.95;;;;;;;18.65;54.11;96498.80;1785354;78;20954;-82
2022/05/27 07:33:01;;;;;;;1.65;0.75;;;;;;;18.69;54.13;96499.14;1776051;78;20989;-82
2022/05/27 07:35:27;;;;;;;1.75;0.75;;;;;;;18.69;53.38;96489.41;1783453;79;21008;-83
2022/05/27 07:37:53;;;;;;;1.25;0.80;;;;;;;18.68;53.47;96486.49;1795258;78;20932;-82
2022/05/27 07:40:19;;;;;;;2.33;0.90;;;;;;;18.78;53.80;96479.34;1793075;79;21073;-82
2022/05/27 07:42:45;;;;;;;2.95;0.80;;;;;;;18.87;52.84;96470.05;1787646;79;21116;-83
2022/05/27 07:45:12;;;;;;;2.92;0.80;;;;;;;18.99;53.55;96477.41;1798121;79;21029;-83
2022/05/27 07:47:38;;;;;;;2.58;0.75;;;;;;;19.15;53.22;96470.63;1790297;79;20901;-82
2022/05/27 07:50:05;;;;;;;3.55;0.90;;;;;;;19.24;52.49;96471.87;1788011;79;21310;-82
2022/05/27 07:52:34;;;;;;;1.22;0.68;;;;;;;19.35;52.47;96472.84;1780193;79;21309;-83
2022/05/27 07:54:59;;;;;;;2.67;0.78;;;;;;;19.47;51.94;96467.82;1787510;79;20994;-82
2022/05/27 07:57:25;;;;;;;1.62;0.70;;;;;;;19.58;51.65;96460.94;1785040;79;21026;-83
2022/05/27 08:00:07;;;;;;;1.42;0.65;;;;;;;19.71;51.67;96465.92;1775997;79;20951;-82
2022/05/27 08:02:33;;;;;;;2.80;0.70;;;;;;;19.77;50.58;96456.26;1780167;79;21405;-84
2022/05/27 08:04:59;;;;;;;1.35;0.60;;;;;;;19.90;50.88;96456.48;1770468;79;21001;-83
2022/05/27 08:07:26;;;;;;;2.35;0.90;;;;;;;19.96;50.72;96443.65;1785808;79;20957;-84
2022/05/27 08:09:52;;;;;;;3.42;0.60;;;;;;;20.05;50.19;96440.39;1783935;79;21030;-84
2022/05/27 08:12:18;;;;;;;2.37;1.05;;;;;;;20.08;50.21;96420.64;1802415;79;20996;-84
2022/05/27 08:14:44;;;;;;;3.62;1.02;;;;;;;20.12;50.04;96419.11;1770192;79;21068;-84
2022/05/27 08:17:09;;;;;;;2.45;1.00;;;;;;;20.33;50.54;96420.20;1772243;79;21009;-84
2022/05/27 08:19:35;;;;;;;7.87;1.82;;;;;;;20.51;49.35;96417.88;1764292;79;21487;-85
2022/05/27 08:22:04;;;;;;;13.40;2.62;;;;;;;20.53;48.67;96425.82;1760430;79;21089;-84
2022/05/27 08:24:30;;;;;;;25.55;6.10;;;;;;;20.53;48.76;96423.18;1784784;79;20927;-85
2022/05/27 08:26:56;;;;;;;5.12;1.47;;;;;;;20.64;49.59;96413.53;1774665;79;21302;-84
2022/05/27 08:29:21;;;;;;;3.58;0.95;;;;;;;20.76;49.23;96417.39;1761392;79;20986;-85
2022/05/27 08:31:47;;;;;;;10.35;1.65;;;;;;;20.75;48.97;96425.04;1763198;79;20942;-85
2022/05/27 08:39:46;;;;;;;4.03;1.10;;;;;;;20.79;48.41;96421.66;1723715;81;21424;-85
2022/05/27 08:42:59;;;;;;;3.52;0.90;;;;;;;21.04;48.82;96416.42;1774856;79;20996;-85
2022/05/27 08:45:39;;;;;;;3.65;1.17;;;;;;;21.33;48.64;96415.19;1777593;79;20995;-85
2022/05/27 08:48:08;;;;;;;3.55;0.95;;;;;;;21.72;48.44;96401.27;1776134;79;21033;-86
2022/05/27 08:50:51;;;;;;;4.05;0.80;;;;;;;22.05;48.11;96401.57;1775764;79;21020;-85
2022/05/27 08:53:46;;;;;;;2.37;0.60;;;;;;;22.18;46.98;96397.70;1774500;79;21085;-83
2022/05/27 08:59:27;;;;;;;2.08;0.72;;;;;;;22.36;46.59;96408.39;1776014;79;21421;-86
2022/05/27 09:02:03;;;;;;;2.85;0.82;;;;;;;22.22;46.83;96412.01;1770627;79;22259;-86
2022/05/27 09:04:38;;;;;;;2.52;0.55;;;;;;;21.85;46.37;96406.16;1777170;79;21452;-85
2022/05/27 09:07:38;;;;;;;2.17;0.90;;;;;;;21.61;46.85;96412.80;1773913;79;21022;-85
2022/05/27 09:10:08;;;;;;;2.33;0.50;;;;;;;21.57;47.12;96403.78;1778624;79;21085;-86
2022/05/27 09:13:04;;;;;;;2.95;0.75;;;;;;;21.42;47.75;96406.28;1768848;79;21011;-86
2022/05/27 09:15:57;;;;;;;3.67;0.60;;;;;;;21.52;47.43;96405.86;1756745;80;21326;-85
2022/05/27 09:18:51;;;;;;;2.72;0.85;;;;;;;21.63;47.16;96394.84;1774844;79;21477;-85
2022/05/27 09:21:47;;;;;;;1.85;0.70;;;;;;;21.63;47.40;96393.52;1772651;80;21047;-85
2022/05/27 09:24:52;;;;;;;2.77;0.78;;;;;;;21.45;47.42;96392.55;1779973;80;21411;-85
2022/05/27 09:27:35;;;;;;;2.45;0.62;;;;;;;21.33;48.06;96386.13;1777254;80;21416;-86
2022/05/27 09:30:05;;;;;;;2.85;1.00;;;;;;;21.26;47.92;96387.63;1774716;79;21011;-86
2022/05/27 09:32:50;;;;;;;1.67;1.00;;;;;;;21.19;47.65;96394.93;1776481;80;20911;-86
2022/05/27 09:35:24;;;;;;;2.58;0.90;;;;;;;21.16;47.77;96384.06;1770761;80;20946;-87
2022/05/27 09:37:52;;;;;;;3.40;1.20;;;;;;;21.19;48.09;96377.75;1768918;79;21057;-86
2022/05/27 09:40:38;;;;;;;4.70;0.70;;;;;;;21.29;48.31;96366.50;1766051;79;21059;-85
2022/05/27 09:43:18;;;;;;;2.60;0.93;;;;;;;21.46;47.95;96365.87;1768863;79;21429;-85
2022/05/27 09:45:54;;;;;;;3.25;0.90;;;;;;;21.65;49.52;96365.53;1778754;79;20951;-85
2022/05/27 09:48:20;;;;;;;1.75;0.60;;;;;;;21.72;48.30;96375.36;1781632;79;20940;-85
2022/05/27 09:50:49;;;;;;;3.15;1.30;;;;;;;21.66;47.58;96363.16;1761862;79;21010;-85
2022/05/27 09:53:29;;;;;;;2.40;0.70;;;;;;;21.63;48.24;96370.24;1745765;80;20999;-86
2022/05/27 09:56:04;;;;;;;5.55;1.10;;;;;;;21.68;48.35;96366.34;1787813;80;21008;-85
2022/05/27 09:58:33;;;;;;;1.55;0.70;;;;;;;21.55;47.93;96363.05;1788356;80;21059;-85
2022/05/27 10:01:02;;;;;;;4.35;0.98;;;;;;;21.42;48.09;96368.75;1759873;79;21073;-85
2022/05/27 10:03:33;;;;;;;2.27;0.70;;;;;;;21.35;48.11;96373.98;1744192;82;20997;-84
2022/05/27 10:06:13;;;;;;;3.75;0.90;;;;;;;21.22;47.96;96375.94;1744032;82;22175;-85
2022/05/27 10:08:53;;;;;;;2.92;0.80;;;;;;;21.18;48.35;96368.23;1716963;82;21006;-85
2022/05/27 10:11:31;;;;;;;4.12;0.78;;;;;;;21.38;48.18;96361.58;1772247;79;20999;-86
2022/05/27 10:14:29;;;;;;;3.47;0.80;;;;;;;21.70;48.34;96353.13;1756683;79;21025;-85
2022/05/27 10:17:11;;;;;;;3.52;0.72;;;;;;;21.84;47.04;96338.96;1756877;82;21024;-85
2022/05/27 10:19:38;;;;;;;3.17;0.82;;;;;;;21.86;47.06;96331.04;1787609;79;20971;-85
2022/05/27 10:22:09;;;;;;;4.35;0.90;;;;;;;21.88;47.27;96333.43;1789640;79;20967;-85
2022/05/27 10:24:43;;;;;;;2.37;0.70;;;;;;;21.98;47.48;96339.33;1744694;82;21019;-86
2022/05/27 10:27:15;;;;;;;1.55;0.70;;;;;;;22.12;47.11;96340.48;1745011;82;21033;-85
2022/05/27 10:29:58;;;;;;;2.60;0.75;;;;;;;22.15;46.44;96342.64;1745036;82;21038;-85
2022/05/27 10:32:35;;;;;;;4.05;0.88;;;;;;;22.07;47.49;96342.58;1745274;82;21022;-86
2022/05/27 10:35:28;;;;;;;3.62;0.98;;;;;;;21.95;46.58;96330.02;1770000;79;21011;-85
2022/05/27 10:38:24;;;;;;;3.72;0.98;;;;;;;21.78;46.39;96328.05;1808210;79;21472;-85
2022/05/27 10:41:23;;;;;;;2.87;0.82;;;;;;;21.71;47.51;96334.89;1807906;79;21353;-86
2022/05/27 10:44:16;;;;;;;1.50;0.80;;;;;;;21.66;47.15;96332.75;1790181;79;21580;-86
2022/05/27 10:46:52;;;;;;;3.45;1.10;;;;;;;21.56;48.78;96323.67;1790484;79;21022;-86
2022/05/27 10:49:43;;;;;;;2.72;0.70;;;;;;;21.66;47.76;96317.68;1789320;80;21052;-86
2022/05/27 10:52:31;;;;;;;4.95;0.80;;;;;;;21.83;48.63;96311.72;1789535;80;20998;-86
2022/05/27 10:55:14;;;;;;;2.12;1.12;;;;;;;22.04;47.49;96305.22;1786008;80;20996;-86
2022/05/27 11:04:23;;;;;;;2.72;1.15;;;;;;;22.32;47.17;96304.09;1808440;79;21003;-86
2022/05/27 11:07:18;;;;;;;2.40;0.80;;;;;;;22.22;47.09;96304.03;1807638;79;21448;-86
2022/05/27 11:10:28;;;;;;;2.72;0.85;;;;;;;22.14;46.89;96306.13;1808369;79;21014;-87
2022/05/27 11:16:54;;;;;;;2.67;0.80;;;;;;;22.06;46.87;96280.13;1789569;80;21060;-86
2022/05/27 11:19:42;;;;;;;4.90;0.88;;;;;;;22.16;47.77;96280.72;1776965;79;20975;-86
2022/05/27 11:22:35;;;;;;;4.25;1.27;;;;;;;;;;1745164;82;21081;-86
2022/05/27 11:25:28;;;;;;;;;;;;;;;21.79;46.78;96272.78;1747459;82;21034;-87
2022/05/27 11:28:24;;;;;;;3.42;0.62;;;;;;;21.54;47.62;96278.71;1745131;82;20114;-86
2022/05/27 11:31:25;;;;;;;3.47;0.70;;;;;;;21.36;47.93;96279.10;1748698;79;20982;-87
2022/05/27 11:34:34;;;;;;;2.20;0.80;;;;;;;21.25;47.79;96261.83;1758140;82;21436;-87
2022/05/27 11:37:18;;;;;;;2.30;0.60;;;;;;;21.12;47.95;96280.70;1757258;79;20999;-86
2022/05/27 11:40:01;;;;;;;4.97;0.90;;;;;;;21.06;47.51;96284.88;1749748;79;20975;-87
2022/05/27 11:42:52;;;;;;;1.20;0.72;;;;;;;21.06;47.34;96265.07;1735184;80;21075;-87
2022/05/27 11:45:29;;;;;;;4.08;0.78;;;;;;;21.06;47.50;96255.83;1789743;80;21111;-87
2022/05/27 11:48:07;;;;;;;2.10;0.68;;;;;;;21.10;48.03;96252.95;1790050;80;21038;-84
2022/05/27 11:51:05;;;;;;;3.70;0.90;;;;;;;21.14;48.91;96261.44;1789714;80;21030;-85
2022/05/27 11:53:39;;;;;;;3.85;0.70;;;;;;;21.17;47.52;96248.27;1789725;80;20976;-85
2022/05/27 11:56:16;;;;;;;2.27;0.98;;;;;;;21.30;47.82;96263.71;1789634;80;20984;-85
2022/05/27 11:58:56;;;;;;;2.37;1.00;;;;;;;21.43;47.35;96250.59;1790129;80;21043;-85
2022/05/27 12:01:36;;;;;;;3.75;0.93;;;;;;;21.52;47.53;96276.33;1788595;80;20983;-84
2022/05/27 12:04:39;;;;;;;1.95;0.65;;;;;;;21.58;47.81;96257.32;1772731;80;21371;-84
2022/05/27 12:07:44;;;;;;;3.00;1.05;;;;;;;21.60;47.93;96261.83;1783184;80;20991;-86
2022/05/27 12:10:24;;;;;;;2.70;0.80;;;;;;;21.48;48.18;96254.62;1772153;80;20985;-84
2022/05/27 12:13:10;;;;;;;4.58;0.90;;;;;;;21.32;48.15;96264.81;1785045;79;20995;-84
2022/05/27 12:15:52;;;;;;;3.52;1.10;;;;;;;21.18;48.46;96265.19;1772589;80;21060;-84
2022/05/27 12:18:25;;;;;;;3.83;1.20;;;;;;;21.11;49.02;96254.02;1765934;80;20979;-84
2022/05/27 12:20:51;;;;;;;2.92;0.90;;;;;;;21.23;49.03;96248.05;1791249;80;21093;-84
2022/05/27 12:23:17;;;;;;;3.15;1.85;;;;;;;21.39;48.73;96239.75;1780936;79;21026;-85
2022/05/27 12:25:50;;;;;;;5.12;1.00;;;;;;;21.66;48.75;96249.45;1701761;80;21431;-84
2022/05/27 12:28:16;;;;;;;3.67;1.07;;;;;;;21.81;48.40;96249.55;1788892;80;20989;-84
2022/05/27 12:30:42;;;;;;;3.98;1.02;;;;;;;22.04;48.52;96232.47;1782157;80;21042;-84
2022/05/27 12:33:17;;;;;;;1.42;1.00;;;;;;;22.34;48.18;96233.95;1764129;79;20990;-83
2022/05/27 12:36:07;;;;;;;3.58;1.45;;;;;;;22.46;47.96;96235.85;1764312;80;21358;-84
2022/05/27 12:38:44;;;;;;;5.10;1.50;;;;;;;22.50;47.45;96238.77;1777557;80;20962;-85
2022/05/27 12:41:14;;;;;;;2.08;0.90;;;;;;;22.60;47.86;96237.98;1789339;80;21045;-84